sensor_id;sensor_type;location;lat;lon;timestamp;P1;durP1;ratioP1;P2;durP2;ratioP2
5690;SDS011;2870;42.680;23.364;2022-12-24T00:00:56;76.80;;;37.10;;
5690;SDS011;2870;42.680;23.364;2022-12-24T00:03:23;68.00;;;35.30;;
5690;SDS011;2870;42.680;23.364;2022-12-24T00:05:50;68.00;;;35.23;;
5690;SDS011;2870;42.680;23.364;2022-12-24T00:08:17;54.93;;;33.97;;
5690;SDS011;2870;42.680;23.364;2022-12-24T00:10:47;55.50;;;32.60;;
5690;SDS011;2870;42.680;23.364;2022-12-24T00:13:14;62.07;;;36.67;;
5690;SDS011;2870;42.680;23.364;2022-12-24T00:15:41;63.70;;;34.07;;
5690;SDS011;2870;42.680;23.364;2022-12-24T00:18:08;56.83;;;31.37;;
5690;SDS011;2870;42.680;23.364;2022-12-24T00:20:35;69.00;;;32.90;;
5690;SDS011;2870;42.680;23.364;2022-12-24T00:23:01;50.00;;;30.00;;
5690;SDS011;2870;42.680;23.364;2022-12-24T00:25:28;56.37;;;31.50;;
5690;SDS011;2870;42.680;23.364;2022-12-24T00:27:57;56.00;;;32.33;;
5690;SDS011;2870;42.680;23.364;2022-12-24T00:30:23;80.23;;;34.67;;
5690;SDS011;2870;42.680;23.364;2022-12-24T00:32:51;61.83;;;33.60;;
5690;SDS011;2870;42.680;23.364;2022-12-24T00:35:17;61.77;;;33.83;;
5690;SDS011;2870;42.680;23.364;2022-12-24T00:37:45;61.93;;;30.77;;
5690;SDS011;2870;42.680;23.364;2022-12-24T00:40:13;54.23;;;29.83;;
5690;SDS011;2870;42.680;23.364;2022-12-24T00:42:40;69.77;;;30.70;;
5690;SDS011;2870;42.680;23.364;2022-12-24T00:45:09;57.50;;;30.63;;
5690;SDS011;2870;42.680;23.364;2022-12-24T00:47:36;67.30;;;31.93;;
5690;SDS011;2870;42.680;23.364;2022-12-24T00:50:04;54.20;;;31.40;;
5690;SDS011;2870;42.680;23.364;2022-12-24T00:52:31;52.33;;;30.20;;
5690;SDS011;2870;42.680;23.364;2022-12-24T00:54:58;69.23;;;29.97;;
5690;SDS011;2870;42.680;23.364;2022-12-24T00:57:25;50.57;;;29.20;;
5690;SDS011;2870;42.680;23.364;2022-12-24T00:59:51;52.43;;;29.60;;
5690;SDS011;2870;42.680;23.364;2022-12-24T01:02:20;63.63;;;31.67;;
5690;SDS011;2870;42.680;23.364;2022-12-24T01:04:46;64.27;;;32.10;;
5690;SDS011;2870;42.680;23.364;2022-12-24T01:07:31;58.23;;;31.17;;
5690;SDS011;2870;42.680;23.364;2022-12-24T01:09:58;80.83;;;43.97;;
5690;SDS011;2870;42.680;23.364;2022-12-24T01:12:24;91.10;;;47.40;;
5690;SDS011;2870;42.680;23.364;2022-12-24T01:14:51;110.80;;;48.60;;
5690;SDS011;2870;42.680;23.364;2022-12-24T01:17:19;91.53;;;41.70;;
5690;SDS011;2870;42.680;23.364;2022-12-24T01:19:46;72.57;;;40.67;;
5690;SDS011;2870;42.680;23.364;2022-12-24T01:22:13;65.93;;;37.27;;
5690;SDS011;2870;42.680;23.364;2022-12-24T01:24:40;61.13;;;36.37;;
5690;SDS011;2870;42.680;23.364;2022-12-24T01:27:07;76.07;;;39.53;;
5690;SDS011;2870;42.680;23.364;2022-12-24T01:29:34;67.13;;;37.70;;
5690;SDS011;2870;42.680;23.364;2022-12-24T01:32:01;68.93;;;36.97;;
5690;SDS011;2870;42.680;23.364;2022-12-24T01:34:29;74.13;;;38.17;;
5690;SDS011;2870;42.680;23.364;2022-12-24T01:36:56;67.93;;;37.90;;
5690;SDS011;2870;42.680;23.364;2022-12-24T01:39:22;80.00;;;38.73;;
5690;SDS011;2870;42.680;23.364;2022-12-24T01:41:50;82.90;;;40.20;;
5690;SDS011;2870;42.680;23.364;2022-12-24T01:44:35;78.87;;;39.77;;
5690;SDS011;2870;42.680;23.364;2022-12-24T01:47:07;75.30;;;39.97;;
5690;SDS011;2870;42.680;23.364;2022-12-24T01:49:39;76.87;;;38.50;;
5690;SDS011;2870;42.680;23.364;2022-12-24T01:52:11;82.40;;;43.27;;
5690;SDS011;2870;42.680;23.364;2022-12-24T01:54:42;96.03;;;45.60;;
5690;SDS011;2870;42.680;23.364;2022-12-24T01:57:12;87.27;;;45.90;;
5690;SDS011;2870;42.680;23.364;2022-12-24T01:59:45;93.33;;;46.53;;
5690;SDS011;2870;42.680;23.364;2022-12-24T02:02:14;100.30;;;48.80;;
5690;SDS011;2870;42.680;23.364;2022-12-24T02:04:45;87.00;;;47.20;;
5690;SDS011;2870;42.680;23.364;2022-12-24T02:07:16;98.20;;;49.03;;
5690;SDS011;2870;42.680;23.364;2022-12-24T02:09:43;103.80;;;49.57;;
5690;SDS011;2870;42.680;23.364;2022-12-24T02:12:10;110.20;;;53.87;;
5690;SDS011;2870;42.680;23.364;2022-12-24T02:14:37;101.10;;;52.53;;
5690;SDS011;2870;42.680;23.364;2022-12-24T02:17:06;105.40;;;51.80;;
5690;SDS011;2870;42.680;23.364;2022-12-24T02:22:49;110.70;;;59.33;;
5690;SDS011;2870;42.680;23.364;2022-12-24T02:25:40;94.83;;;54.10;;
5690;SDS011;2870;42.680;23.364;2022-12-24T02:28:27;88.40;;;46.20;;
5690;SDS011;2870;42.680;23.364;2022-12-24T02:31:09;102.57;;;47.00;;
5690;SDS011;2870;42.680;23.364;2022-12-24T02:33:42;96.77;;;47.20;;
5690;SDS011;2870;42.680;23.364;2022-12-24T02:36:16;90.57;;;47.33;;
5690;SDS011;2870;42.680;23.364;2022-12-24T02:38:49;83.65;;;46.20;;
5690;SDS011;2870;42.680;23.364;2022-12-24T02:41:22;93.07;;;48.80;;
5690;SDS011;2870;42.680;23.364;2022-12-24T02:43:52;87.50;;;46.28;;
5690;SDS011;2870;42.680;23.364;2022-12-24T02:46:24;86.97;;;48.37;;
5690;SDS011;2870;42.680;23.364;2022-12-24T02:48:53;88.67;;;47.67;;
5690;SDS011;2870;42.680;23.364;2022-12-24T02:51:22;89.75;;;45.55;;
5690;SDS011;2870;42.680;23.364;2022-12-24T02:53:50;89.50;;;46.10;;
5690;SDS011;2870;42.680;23.364;2022-12-24T02:56:27;91.17;;;46.80;;
5690;SDS011;2870;42.680;23.364;2022-12-24T02:59:09;91.47;;;47.10;;
5690;SDS011;2870;42.680;23.364;2022-12-24T03:01:53;93.03;;;47.30;;
5690;SDS011;2870;42.680;23.364;2022-12-24T03:04:29;86.07;;;46.23;;
5690;SDS011;2870;42.680;23.364;2022-12-24T03:07:12;81.90;;;45.30;;
5690;SDS011;2870;42.680;23.364;2022-12-24T03:09:55;102.60;;;49.93;;
5690;SDS011;2870;42.680;23.364;2022-12-24T03:12:33;90.27;;;50.23;;
5690;SDS011;2870;42.680;23.364;2022-12-24T03:15:04;96.17;;;50.07;;
5690;SDS011;2870;42.680;23.364;2022-12-24T03:17:35;115.63;;;54.70;;
5690;SDS011;2870;42.680;23.364;2022-12-24T03:20:04;143.57;;;75.60;;
5690;SDS011;2870;42.680;23.364;2022-12-24T03:22:33;161.50;;;75.23;;
5690;SDS011;2870;42.680;23.364;2022-12-24T03:25:01;166.97;;;80.47;;
5690;SDS011;2870;42.680;23.364;2022-12-24T03:27:29;156.60;;;80.70;;
5690;SDS011;2870;42.680;23.364;2022-12-24T03:29:57;141.10;;;73.80;;
5690;SDS011;2870;42.680;23.364;2022-12-24T03:32:26;135.27;;;63.30;;
5690;SDS011;2870;42.680;23.364;2022-12-24T03:34:55;106.77;;;57.30;;
5690;SDS011;2870;42.680;23.364;2022-12-24T03:37:22;109.87;;;58.83;;
5690;SDS011;2870;42.680;23.364;2022-12-24T03:39:50;105.20;;;52.45;;
5690;SDS011;2870;42.680;23.364;2022-12-24T03:42:17;109.75;;;58.55;;
5690;SDS011;2870;42.680;23.364;2022-12-24T03:44:44;107.18;;;55.03;;
5690;SDS011;2870;42.680;23.364;2022-12-24T03:47:11;107.47;;;55.85;;
5690;SDS011;2870;42.680;23.364;2022-12-24T03:49:38;114.82;;;56.05;;
5690;SDS011;2870;42.680;23.364;2022-12-24T03:52:06;111.10;;;56.45;;
5690;SDS011;2870;42.680;23.364;2022-12-24T03:54:33;105.13;;;55.85;;
5690;SDS011;2870;42.680;23.364;2022-12-24T03:56:59;113.07;;;57.58;;
5690;SDS011;2870;42.680;23.364;2022-12-24T03:59:26;108.13;;;55.67;;
5690;SDS011;2870;42.680;23.364;2022-12-24T04:01:53;113.25;;;56.72;;
5690;SDS011;2870;42.680;23.364;2022-12-24T04:04:20;113.57;;;56.53;;
5690;SDS011;2870;42.680;23.364;2022-12-24T04:06:46;113.78;;;56.50;;
5690;SDS011;2870;42.680;23.364;2022-12-24T04:09:15;107.93;;;52.72;;
5690;SDS011;2870;42.680;23.364;2022-12-24T04:11:41;109.45;;;56.30;;
5690;SDS011;2870;42.680;23.364;2022-12-24T04:14:08;109.57;;;55.88;;
5690;SDS011;2870;42.680;23.364;2022-12-24T04:16:35;105.95;;;53.55;;
5690;SDS011;2870;42.680;23.364;2022-12-24T04:19:02;107.57;;;54.50;;
5690;SDS011;2870;42.680;23.364;2022-12-24T04:21:28;104.67;;;53.93;;
5690;SDS011;2870;42.680;23.364;2022-12-24T04:23:55;92.78;;;48.28;;
5690;SDS011;2870;42.680;23.364;2022-12-24T04:26:23;92.93;;;49.70;;
5690;SDS011;2870;42.680;23.364;2022-12-24T04:28:50;96.32;;;48.67;;
5690;SDS011;2870;42.680;23.364;2022-12-24T04:31:17;82.28;;;49.38;;
5690;SDS011;2870;42.680;23.364;2022-12-24T04:33:44;116.80;;;50.33;;
5690;SDS011;2870;42.680;23.364;2022-12-24T04:36:12;92.55;;;47.67;;
5690;SDS011;2870;42.680;23.364;2022-12-24T04:38:41;85.20;;;49.20;;
5690;SDS011;2870;42.680;23.364;2022-12-24T04:41:09;100.23;;;51.90;;
5690;SDS011;2870;42.680;23.364;2022-12-24T04:43:39;110.50;;;52.40;;
5690;SDS011;2870;42.680;23.364;2022-12-24T04:46:06;101.07;;;51.57;;
5690;SDS011;2870;42.680;23.364;2022-12-24T04:48:34;111.35;;;56.30;;
5690;SDS011;2870;42.680;23.364;2022-12-24T04:51:02;109.40;;;54.03;;
5690;SDS011;2870;42.680;23.364;2022-12-24T04:53:29;89.07;;;49.17;;
5690;SDS011;2870;42.680;23.364;2022-12-24T04:55:57;103.47;;;54.00;;
5690;SDS011;2870;42.680;23.364;2022-12-24T04:58:24;107.10;;;51.08;;
5690;SDS011;2870;42.680;23.364;2022-12-24T05:00:52;101.50;;;53.10;;
5690;SDS011;2870;42.680;23.364;2022-12-24T05:03:20;113.55;;;55.28;;
5690;SDS011;2870;42.680;23.364;2022-12-24T05:05:47;97.18;;;50.85;;
5690;SDS011;2870;42.680;23.364;2022-12-24T05:08:14;151.52;;;82.15;;
5690;SDS011;2870;42.680;23.364;2022-12-24T05:10:41;126.60;;;64.60;;
5690;SDS011;2870;42.680;23.364;2022-12-24T05:13:07;129.20;;;61.77;;
5690;SDS011;2870;42.680;23.364;2022-12-24T05:15:34;114.30;;;60.70;;
5690;SDS011;2870;42.680;23.364;2022-12-24T05:18:02;129.52;;;63.53;;
5690;SDS011;2870;42.680;23.364;2022-12-24T05:20:30;121.50;;;63.83;;
5690;SDS011;2870;42.680;23.364;2022-12-24T05:22:56;137.85;;;65.85;;
5690;SDS011;2870;42.680;23.364;2022-12-24T05:25:41;137.15;;;69.78;;
5690;SDS011;2870;42.680;23.364;2022-12-24T05:28:25;148.85;;;71.38;;
5690;SDS011;2870;42.680;23.364;2022-12-24T05:30:52;145.52;;;73.35;;
5690;SDS011;2870;42.680;23.364;2022-12-24T05:33:20;150.35;;;77.55;;
5690;SDS011;2870;42.680;23.364;2022-12-24T05:35:46;184.02;;;91.38;;
5690;SDS011;2870;42.680;23.364;2022-12-24T05:38:13;183.13;;;89.30;;
5690;SDS011;2870;42.680;23.364;2022-12-24T05:40:40;190.25;;;95.53;;
5690;SDS011;2870;42.680;23.364;2022-12-24T05:43:07;178.65;;;95.28;;
5690;SDS011;2870;42.680;23.364;2022-12-24T05:45:33;192.23;;;101.78;;
5690;SDS011;2870;42.680;23.364;2022-12-24T05:48:00;200.20;;;104.18;;
5690;SDS011;2870;42.680;23.364;2022-12-24T05:50:28;190.10;;;101.10;;
5690;SDS011;2870;42.680;23.364;2022-12-24T05:52:55;181.70;;;103.05;;
5690;SDS011;2870;42.680;23.364;2022-12-24T05:55:22;217.25;;;103.90;;
5690;SDS011;2870;42.680;23.364;2022-12-24T05:57:49;205.63;;;101.60;;
5690;SDS011;2870;42.680;23.364;2022-12-24T06:00:16;215.80;;;106.80;;
5690;SDS011;2870;42.680;23.364;2022-12-24T06:02:43;216.52;;;111.60;;
5690;SDS011;2870;42.680;23.364;2022-12-24T06:05:10;222.63;;;110.68;;
5690;SDS011;2870;42.680;23.364;2022-12-24T06:07:38;207.20;;;106.22;;
5690;SDS011;2870;42.680;23.364;2022-12-24T06:10:05;214.23;;;103.55;;
5690;SDS011;2870;42.680;23.364;2022-12-24T06:12:33;208.98;;;109.88;;
5690;SDS011;2870;42.680;23.364;2022-12-24T06:15:00;213.85;;;97.85;;
5690;SDS011;2870;42.680;23.364;2022-12-24T06:17:27;216.65;;;104.43;;
5690;SDS011;2870;42.680;23.364;2022-12-24T06:19:54;201.30;;;97.80;;
5690;SDS011;2870;42.680;23.364;2022-12-24T06:22:20;192.00;;;86.95;;
5690;SDS011;2870;42.680;23.364;2022-12-24T06:24:49;246.00;;;113.80;;
5690;SDS011;2870;42.680;23.364;2022-12-24T06:27:15;191.93;;;97.38;;
5690;SDS011;2870;42.680;23.364;2022-12-24T06:29:43;149.80;;;71.82;;
5690;SDS011;2870;42.680;23.364;2022-12-24T06:32:10;143.65;;;66.50;;
5690;SDS011;2870;42.680;23.364;2022-12-24T06:34:37;127.70;;;61.83;;
5690;SDS011;2870;42.680;23.364;2022-12-24T06:37:04;119.38;;;61.80;;
5690;SDS011;2870;42.680;23.364;2022-12-24T06:39:31;145.23;;;70.38;;
5690;SDS011;2870;42.680;23.364;2022-12-24T06:41:59;133.52;;;61.47;;
5690;SDS011;2870;42.680;23.364;2022-12-24T06:44:26;126.43;;;64.75;;
5690;SDS011;2870;42.680;23.364;2022-12-24T06:46:53;118.97;;;57.85;;
5690;SDS011;2870;42.680;23.364;2022-12-24T06:49:20;126.97;;;62.22;;
5690;SDS011;2870;42.680;23.364;2022-12-24T06:51:46;119.88;;;56.40;;
5690;SDS011;2870;42.680;23.364;2022-12-24T06:54:13;105.60;;;53.22;;
5690;SDS011;2870;42.680;23.364;2022-12-24T06:56:40;111.72;;;56.85;;
5690;SDS011;2870;42.680;23.364;2022-12-24T06:59:08;91.43;;;47.55;;
5690;SDS011;2870;42.680;23.364;2022-12-24T07:01:35;88.30;;;46.67;;
5690;SDS011;2870;42.680;23.364;2022-12-24T07:04:01;82.13;;;43.25;;
5690;SDS011;2870;42.680;23.364;2022-12-24T07:06:30;83.97;;;43.65;;
5690;SDS011;2870;42.680;23.364;2022-12-24T07:08:57;79.35;;;39.70;;
5690;SDS011;2870;42.680;23.364;2022-12-24T07:11:24;81.13;;;41.15;;
5690;SDS011;2870;42.680;23.364;2022-12-24T07:13:51;87.30;;;45.17;;
5690;SDS011;2870;42.680;23.364;2022-12-24T07:16:19;83.72;;;42.33;;
5690;SDS011;2870;42.680;23.364;2022-12-24T07:18:46;76.22;;;41.72;;
5690;SDS011;2870;42.680;23.364;2022-12-24T07:21:13;77.25;;;40.08;;
5690;SDS011;2870;42.680;23.364;2022-12-24T07:23:40;75.10;;;40.20;;
5690;SDS011;2870;42.680;23.364;2022-12-24T07:26:07;81.80;;;44.10;;
5690;SDS011;2870;42.680;23.364;2022-12-24T07:28:34;69.37;;;40.43;;
5690;SDS011;2870;42.680;23.364;2022-12-24T07:31:01;69.90;;;38.70;;
5690;SDS011;2870;42.680;23.364;2022-12-24T07:33:29;75.78;;;38.08;;
5690;SDS011;2870;42.680;23.364;2022-12-24T07:35:57;79.07;;;38.50;;
5690;SDS011;2870;42.680;23.364;2022-12-24T07:38:25;70.70;;;38.77;;
5690;SDS011;2870;42.680;23.364;2022-12-24T07:40:52;66.18;;;36.38;;
5690;SDS011;2870;42.680;23.364;2022-12-24T07:43:18;70.90;;;38.33;;
5690;SDS011;2870;42.680;23.364;2022-12-24T07:45:45;70.53;;;37.23;;
5690;SDS011;2870;42.680;23.364;2022-12-24T07:48:12;67.53;;;37.93;;
5690;SDS011;2870;42.680;23.364;2022-12-24T07:50:41;63.67;;;37.60;;
5690;SDS011;2870;42.680;23.364;2022-12-24T07:53:07;64.83;;;32.70;;
5690;SDS011;2870;42.680;23.364;2022-12-24T07:55:34;66.03;;;36.03;;
5690;SDS011;2870;42.680;23.364;2022-12-24T07:58:01;60.43;;;34.20;;
5690;SDS011;2870;42.680;23.364;2022-12-24T08:00:28;65.23;;;32.93;;
5690;SDS011;2870;42.680;23.364;2022-12-24T08:02:55;64.13;;;36.13;;
5690;SDS011;2870;42.680;23.364;2022-12-24T08:05:24;54.43;;;31.00;;
5690;SDS011;2870;42.680;23.364;2022-12-24T08:07:52;62.20;;;32.20;;
5690;SDS011;2870;42.680;23.364;2022-12-24T08:10:19;49.63;;;30.10;;
5690;SDS011;2870;42.680;23.364;2022-12-24T08:12:46;65.40;;;33.83;;
5690;SDS011;2870;42.680;23.364;2022-12-24T08:15:14;62.07;;;32.80;;
5690;SDS011;2870;42.680;23.364;2022-12-24T08:17:41;69.33;;;37.30;;
5690;SDS011;2870;42.680;23.364;2022-12-24T08:20:08;67.13;;;34.30;;
5690;SDS011;2870;42.680;23.364;2022-12-24T08:22:35;67.23;;;37.73;;
5690;SDS011;2870;42.680;23.364;2022-12-24T08:25:03;69.43;;;39.87;;
5690;SDS011;2870;42.680;23.364;2022-12-24T08:27:30;61.13;;;35.30;;
5690;SDS011;2870;42.680;23.364;2022-12-24T08:29:57;74.00;;;44.03;;
5690;SDS011;2870;42.680;23.364;2022-12-24T08:32:24;73.17;;;42.23;;
5690;SDS011;2870;42.680;23.364;2022-12-24T08:34:51;91.63;;;47.93;;
5690;SDS011;2870;42.680;23.364;2022-12-24T08:37:18;77.77;;;46.70;;
5690;SDS011;2870;42.680;23.364;2022-12-24T08:39:45;79.40;;;44.57;;
5690;SDS011;2870;42.680;23.364;2022-12-24T08:42:13;83.63;;;44.97;;
5690;SDS011;2870;42.680;23.364;2022-12-24T08:44:40;81.60;;;47.10;;
5690;SDS011;2870;42.680;23.364;2022-12-24T08:47:06;85.33;;;48.40;;
5690;SDS011;2870;42.680;23.364;2022-12-24T08:49:33;84.57;;;47.63;;
5690;SDS011;2870;42.680;23.364;2022-12-24T08:52:00;80.80;;;47.93;;
5690;SDS011;2870;42.680;23.364;2022-12-24T08:54:27;106.60;;;51.87;;
5690;SDS011;2870;42.680;23.364;2022-12-24T08:56:53;107.00;;;50.73;;
5690;SDS011;2870;42.680;23.364;2022-12-24T08:59:22;86.43;;;46.67;;
5690;SDS011;2870;42.680;23.364;2022-12-24T09:01:48;84.73;;;46.60;;
5690;SDS011;2870;42.680;23.364;2022-12-24T09:04:15;90.43;;;47.70;;
5690;SDS011;2870;42.680;23.364;2022-12-24T09:06:42;81.37;;;46.47;;
5690;SDS011;2870;42.680;23.364;2022-12-24T09:09:09;76.23;;;43.30;;
5690;SDS011;2870;42.680;23.364;2022-12-24T09:11:36;78.80;;;41.17;;
5690;SDS011;2870;42.680;23.364;2022-12-24T09:14:03;81.43;;;43.77;;
5690;SDS011;2870;42.680;23.364;2022-12-24T09:16:31;112.70;;;52.40;;
5690;SDS011;2870;42.680;23.364;2022-12-24T09:18:58;97.77;;;48.90;;
5690;SDS011;2870;42.680;23.364;2022-12-24T09:21:24;83.90;;;47.37;;
5690;SDS011;2870;42.680;23.364;2022-12-24T09:23:51;93.13;;;50.30;;
5690;SDS011;2870;42.680;23.364;2022-12-24T09:26:19;88.80;;;49.67;;
5690;SDS011;2870;42.680;23.364;2022-12-24T09:28:48;92.50;;;48.27;;
5690;SDS011;2870;42.680;23.364;2022-12-24T09:31:15;93.83;;;49.13;;
5690;SDS011;2870;42.680;23.364;2022-12-24T09:33:44;83.27;;;47.67;;
5690;SDS011;2870;42.680;23.364;2022-12-24T09:36:13;80.93;;;47.50;;
5690;SDS011;2870;42.680;23.364;2022-12-24T09:38:40;83.43;;;47.80;;
5690;SDS011;2870;42.680;23.364;2022-12-24T09:41:11;82.90;;;45.13;;
5690;SDS011;2870;42.680;23.364;2022-12-24T09:43:39;86.23;;;45.43;;
5690;SDS011;2870;42.680;23.364;2022-12-24T09:46:12;73.27;;;45.20;;
5690;SDS011;2870;42.680;23.364;2022-12-24T09:48:45;78.87;;;44.33;;
5690;SDS011;2870;42.680;23.364;2022-12-24T09:51:17;77.63;;;43.87;;
5690;SDS011;2870;42.680;23.364;2022-12-24T09:53:52;91.70;;;46.20;;
5690;SDS011;2870;42.680;23.364;2022-12-24T09:56:23;90.93;;;46.77;;
5690;SDS011;2870;42.680;23.364;2022-12-24T09:58:54;100.87;;;48.30;;
5690;SDS011;2870;42.680;23.364;2022-12-24T10:01:24;95.73;;;53.00;;
5690;SDS011;2870;42.680;23.364;2022-12-24T10:03:53;94.37;;;53.23;;
5690;SDS011;2870;42.680;23.364;2022-12-24T10:06:21;92.23;;;49.30;;
5690;SDS011;2870;42.680;23.364;2022-12-24T10:08:54;99.03;;;50.60;;
5690;SDS011;2870;42.680;23.364;2022-12-24T10:11:29;86.60;;;48.90;;
5690;SDS011;2870;42.680;23.364;2022-12-24T10:14:08;89.53;;;47.77;;
5690;SDS011;2870;42.680;23.364;2022-12-24T10:16:47;80.83;;;47.17;;
5690;SDS011;2870;42.680;23.364;2022-12-24T10:19:27;115.57;;;47.23;;
5690;SDS011;2870;42.680;23.364;2022-12-24T10:22:04;85.37;;;46.77;;
5690;SDS011;2870;42.680;23.364;2022-12-24T10:24:42;91.67;;;48.37;;
5690;SDS011;2870;42.680;23.364;2022-12-24T10:27:17;82.07;;;46.50;;
5690;SDS011;2870;42.680;23.364;2022-12-24T10:29:47;93.53;;;49.30;;
5690;SDS011;2870;42.680;23.364;2022-12-24T10:32:20;86.93;;;45.77;;
5690;SDS011;2870;42.680;23.364;2022-12-24T10:34:51;88.53;;;46.20;;
5690;SDS011;2870;42.680;23.364;2022-12-24T10:37:21;93.30;;;47.80;;
5690;SDS011;2870;42.680;23.364;2022-12-24T10:39:49;89.30;;;46.50;;
5690;SDS011;2870;42.680;23.364;2022-12-24T10:42:17;88.00;;;45.67;;
5690;SDS011;2870;42.680;23.364;2022-12-24T10:44:49;77.67;;;45.67;;
5690;SDS011;2870;42.680;23.364;2022-12-24T10:47:20;77.27;;;42.97;;
5690;SDS011;2870;42.680;23.364;2022-12-24T10:49:48;83.00;;;47.80;;
5690;SDS011;2870;42.680;23.364;2022-12-24T10:52:26;79.93;;;42.97;;
5690;SDS011;2870;42.680;23.364;2022-12-24T10:55:08;83.77;;;45.07;;
5690;SDS011;2870;42.680;23.364;2022-12-24T10:57:37;86.47;;;42.27;;
5690;SDS011;2870;42.680;23.364;2022-12-24T11:00:05;83.60;;;44.70;;
5690;SDS011;2870;42.680;23.364;2022-12-24T11:02:43;72.87;;;42.00;;
5690;SDS011;2870;42.680;23.364;2022-12-24T11:05:27;101.10;;;42.20;;
5690;SDS011;2870;42.680;23.364;2022-12-24T11:07:58;97.37;;;43.20;;
5690;SDS011;2870;42.680;23.364;2022-12-24T11:10:26;70.57;;;39.50;;
5690;SDS011;2870;42.680;23.364;2022-12-24T11:12:53;72.93;;;38.23;;
5690;SDS011;2870;42.680;23.364;2022-12-24T11:15:21;70.93;;;40.60;;
5690;SDS011;2870;42.680;23.364;2022-12-24T11:17:51;70.20;;;37.50;;
5690;SDS011;2870;42.680;23.364;2022-12-24T11:20:20;65.93;;;37.40;;
5690;SDS011;2870;42.680;23.364;2022-12-24T11:22:53;65.23;;;36.20;;
5690;SDS011;2870;42.680;23.364;2022-12-24T11:25:21;60.93;;;35.23;;
5690;SDS011;2870;42.680;23.364;2022-12-24T11:27:53;63.63;;;35.27;;
5690;SDS011;2870;42.680;23.364;2022-12-24T11:30:26;64.27;;;34.93;;
5690;SDS011;2870;42.680;23.364;2022-12-24T11:35:47;63.43;;;34.90;;
5690;SDS011;2870;42.680;23.364;2022-12-24T11:38:20;60.03;;;32.20;;
5690;SDS011;2870;42.680;23.364;2022-12-24T11:40:49;63.53;;;33.87;;
5690;SDS011;2870;42.680;23.364;2022-12-24T11:43:25;63.20;;;33.07;;
5690;SDS011;2870;42.680;23.364;2022-12-24T11:49:12;59.73;;;32.50;;
5690;SDS011;2870;42.680;23.364;2022-12-24T11:51:45;63.93;;;33.40;;
5690;SDS011;2870;42.680;23.364;2022-12-24T11:54:27;61.07;;;30.73;;
5690;SDS011;2870;42.680;23.364;2022-12-24T11:56:56;52.03;;;28.63;;
5690;SDS011;2870;42.680;23.364;2022-12-24T11:59:28;52.80;;;31.00;;
5690;SDS011;2870;42.680;23.364;2022-12-24T12:01:59;53.43;;;30.77;;
5690;SDS011;2870;42.680;23.364;2022-12-24T12:04:38;54.70;;;26.80;;
5690;SDS011;2870;42.680;23.364;2022-12-24T12:07:09;51.53;;;29.47;;
5690;SDS011;2870;42.680;23.364;2022-12-24T12:09:43;51.63;;;32.23;;
5690;SDS011;2870;42.680;23.364;2022-12-24T12:12:16;48.93;;;28.47;;
5690;SDS011;2870;42.680;23.364;2022-12-24T12:14:48;60.67;;;29.23;;
5690;SDS011;2870;42.680;23.364;2022-12-24T12:17:21;49.00;;;28.47;;
5690;SDS011;2870;42.680;23.364;2022-12-24T12:19:55;54.33;;;27.70;;
5690;SDS011;2870;42.680;23.364;2022-12-24T12:22:27;45.43;;;27.70;;
5690;SDS011;2870;42.680;23.364;2022-12-24T12:24:58;55.60;;;30.77;;
5690;SDS011;2870;42.680;23.364;2022-12-24T12:27:29;48.83;;;27.40;;
5690;SDS011;2870;42.680;23.364;2022-12-24T12:30:00;45.80;;;26.43;;
5690;SDS011;2870;42.680;23.364;2022-12-24T12:32:31;43.37;;;27.67;;
5690;SDS011;2870;42.680;23.364;2022-12-24T12:35:12;54.60;;;28.80;;
5690;SDS011;2870;42.680;23.364;2022-12-24T12:37:44;70.23;;;35.37;;
5690;SDS011;2870;42.680;23.364;2022-12-24T12:40:18;70.33;;;39.23;;
5690;SDS011;2870;42.680;23.364;2022-12-24T12:42:46;86.93;;;46.23;;
5690;SDS011;2870;42.680;23.364;2022-12-24T12:45:32;95.57;;;50.57;;
5690;SDS011;2870;42.680;23.364;2022-12-24T12:48:11;112.03;;;57.80;;
5690;SDS011;2870;42.680;23.364;2022-12-24T12:50:48;116.13;;;60.73;;
5690;SDS011;2870;42.680;23.364;2022-12-24T12:53:26;119.73;;;66.27;;
5690;SDS011;2870;42.680;23.364;2022-12-24T12:56:05;121.27;;;66.67;;
5690;SDS011;2870;42.680;23.364;2022-12-24T12:58:44;122.37;;;69.23;;
5690;SDS011;2870;42.680;23.364;2022-12-24T13:01:17;127.43;;;68.23;;
5690;SDS011;2870;42.680;23.364;2022-12-24T13:03:52;130.33;;;68.23;;
5690;SDS011;2870;42.680;23.364;2022-12-24T13:06:38;117.87;;;65.20;;
5690;SDS011;2870;42.680;23.364;2022-12-24T13:09:39;119.50;;;64.83;;
5690;SDS011;2870;42.680;23.364;2022-12-24T13:15:26;109.87;;;60.20;;
5690;SDS011;2870;42.680;23.364;2022-12-24T13:18:13;98.40;;;54.00;;
5690;SDS011;2870;42.680;23.364;2022-12-24T13:20:57;109.00;;;56.97;;
5690;SDS011;2870;42.680;23.364;2022-12-24T13:23:24;104.97;;;56.83;;
5690;SDS011;2870;42.680;23.364;2022-12-24T13:25:53;93.53;;;52.23;;
5690;SDS011;2870;42.680;23.364;2022-12-24T13:28:33;93.30;;;49.13;;
5690;SDS011;2870;42.680;23.364;2022-12-24T13:31:23;84.60;;;46.50;;
5690;SDS011;2870;42.680;23.364;2022-12-24T13:33:52;71.40;;;42.50;;
5690;SDS011;2870;42.680;23.364;2022-12-24T13:36:21;83.90;;;44.03;;
5690;SDS011;2870;42.680;23.364;2022-12-24T13:38:48;81.17;;;47.57;;
5690;SDS011;2870;42.680;23.364;2022-12-24T13:44:21;85.20;;;46.07;;
5690;SDS011;2870;42.680;23.364;2022-12-24T13:46:50;87.93;;;46.37;;
5690;SDS011;2870;42.680;23.364;2022-12-24T13:49:24;75.60;;;41.80;;
5690;SDS011;2870;42.680;23.364;2022-12-24T13:54:44;77.17;;;43.77;;
5690;SDS011;2870;42.680;23.364;2022-12-24T13:57:22;81.47;;;41.90;;
5690;SDS011;2870;42.680;23.364;2022-12-24T13:59:57;75.37;;;42.23;;
5690;SDS011;2870;42.680;23.364;2022-12-24T14:02:26;74.37;;;40.00;;
5690;SDS011;2870;42.680;23.364;2022-12-24T14:04:58;72.10;;;38.07;;
5690;SDS011;2870;42.680;23.364;2022-12-24T14:07:28;81.23;;;40.57;;
5690;SDS011;2870;42.680;23.364;2022-12-24T14:09:55;61.57;;;38.50;;
5690;SDS011;2870;42.680;23.364;2022-12-24T14:18:25;70.53;;;39.40;;
5690;SDS011;2870;42.680;23.364;2022-12-24T14:20:53;77.47;;;38.10;;
5690;SDS011;2870;42.680;23.364;2022-12-24T14:23:27;74.17;;;40.37;;
5690;SDS011;2870;42.680;23.364;2022-12-24T14:25:59;76.87;;;42.50;;
5690;SDS011;2870;42.680;23.364;2022-12-24T14:28:30;75.73;;;42.50;;
5690;SDS011;2870;42.680;23.364;2022-12-24T14:31:03;73.40;;;41.23;;
5690;SDS011;2870;42.680;23.364;2022-12-24T14:33:31;80.03;;;42.37;;
5690;SDS011;2870;42.680;23.364;2022-12-24T14:35:58;80.03;;;41.77;;
5690;SDS011;2870;42.680;23.364;2022-12-24T14:38:27;77.87;;;44.57;;
5690;SDS011;2870;42.680;23.364;2022-12-24T14:41:02;81.43;;;45.10;;
5690;SDS011;2870;42.680;23.364;2022-12-24T14:43:39;92.03;;;46.87;;
5690;SDS011;2870;42.680;23.364;2022-12-24T14:46:16;89.93;;;51.77;;
5690;SDS011;2870;42.680;23.364;2022-12-24T14:48:50;99.10;;;51.27;;
5690;SDS011;2870;42.680;23.364;2022-12-24T14:51:21;92.50;;;50.60;;
5690;SDS011;2870;42.680;23.364;2022-12-24T14:54:03;96.70;;;52.30;;
5690;SDS011;2870;42.680;23.364;2022-12-24T14:56:42;89.43;;;54.17;;
5690;SDS011;2870;42.680;23.364;2022-12-24T14:59:16;100.53;;;53.87;;
5690;SDS011;2870;42.680;23.364;2022-12-24T15:01:45;93.73;;;51.83;;
5690;SDS011;2870;42.680;23.364;2022-12-24T15:04:16;107.03;;;52.50;;
5690;SDS011;2870;42.680;23.364;2022-12-24T15:06:44;93.30;;;52.00;;
5690;SDS011;2870;42.680;23.364;2022-12-24T15:09:16;89.60;;;51.27;;
5690;SDS011;2870;42.680;23.364;2022-12-24T15:11:45;79.10;;;48.50;;